createdAt,value
2018-07-23T00:01:57.748Z,99.90
2018-07-23T00:04:28.350Z,99.90
2018-07-23T00:06:59.237Z,99.90
2018-07-23T00:09:29.801Z,99.90
2018-07-23T00:12:00.222Z,99.90
2018-07-23T00:14:30.824Z,99.90
2018-07-23T00:17:01.720Z,99.90
2018-07-23T00:19:33.574Z,99.90
2018-07-23T00:22:04.096Z,99.90
2018-07-23T00:24:34.695Z,99.90
2018-07-23T00:27:05.234Z,99.90
2018-07-23T00:29:35.786Z,99.90
2018-07-23T00:32:06.364Z,99.90
2018-07-23T00:34:37.056Z,99.90
2018-07-23T00:37:08.174Z,99.90
2018-07-23T00:39:39.178Z,99.90
2018-07-23T00:44:39.800Z,99.90
2018-07-23T00:47:10.641Z,99.90
2018-07-23T00:49:41.276Z,99.90
2018-07-23T00:52:12.666Z,99.90
2018-07-23T00:54:43.431Z,99.90
2018-07-23T00:57:14.772Z,99.90
2018-07-23T00:59:45.289Z,99.90
2018-07-23T01:02:15.924Z,99.90
2018-07-23T01:04:46.567Z,99.90
2018-07-23T01:07:17.180Z,99.90
2018-07-23T01:09:49.136Z,99.90
2018-07-23T01:15:05.357Z,99.90
2018-07-23T01:17:35.902Z,99.90
2018-07-23T01:20:06.608Z,99.90
2018-07-23T01:22:37.109Z,99.90
2018-07-23T01:25:07.626Z,99.90
2018-07-23T01:27:38.975Z,99.90
2018-07-23T01:30:09.899Z,99.90
2018-07-23T01:35:10.368Z,99.90
2018-07-23T01:37:40.975Z,99.90
2018-07-23T01:40:11.611Z,99.90
2018-07-23T01:42:42.727Z,99.90
2018-07-23T01:45:13.694Z,99.90
2018-07-23T01:47:44.911Z,99.90
2018-07-23T01:50:15.449Z,99.90
2018-07-23T01:52:46.090Z,99.90
2018-07-23T01:55:16.654Z,99.90
2018-07-23T01:57:47.417Z,99.90
2018-07-23T02:00:18.380Z,99.90
2018-07-23T02:02:48.846Z,99.90
2018-07-23T02:05:20.152Z,99.90
2018-07-23T02:07:51.641Z,99.90
2018-07-23T02:10:22.109Z,99.90
2018-07-23T02:12:53.445Z,99.90
2018-07-23T02:15:23.919Z,99.90
2018-07-23T02:17:54.373Z,99.90
2018-07-23T02:20:24.879Z,99.90
2018-07-23T02:22:56.650Z,99.90
2018-07-23T02:27:57.927Z,99.90
2018-07-23T02:30:28.404Z,99.90
2018-07-23T02:32:58.995Z,99.90
2018-07-23T02:35:29.516Z,99.90
2018-07-23T02:38:00.093Z,99.90
2018-07-23T02:40:30.663Z,99.90
2018-07-23T02:43:01.778Z,99.90
2018-07-23T02:45:33.261Z,99.90
2018-07-23T02:48:03.782Z,99.90
2018-07-23T02:50:34.565Z,99.90
2018-07-23T02:53:05.167Z,99.90
2018-07-23T02:55:35.770Z,99.90
2018-07-23T02:58:06.303Z,99.90
2018-07-23T03:00:36.950Z,99.90
2018-07-23T03:03:08.704Z,99.90
2018-07-23T03:08:09.298Z,99.90
2018-07-23T03:10:39.770Z,99.90
2018-07-23T03:13:10.279Z,99.90
2018-07-23T03:15:40.797Z,99.90
2018-07-23T03:18:11.245Z,99.90
2018-07-23T03:20:41.981Z,99.90
2018-07-23T03:23:13.239Z,99.90
2018-07-23T03:25:43.897Z,99.90
2018-07-23T03:28:14.395Z,99.90
2018-07-23T03:33:15.044Z,99.90
2018-07-23T03:35:45.554Z,99.90
2018-07-23T03:38:16.167Z,99.90
2018-07-23T03:40:46.898Z,99.90
2018-07-23T03:43:18.211Z,99.90
2018-07-23T03:45:49.015Z,99.90
2018-07-23T03:48:19.491Z,99.90
2018-07-23T03:50:50.144Z,99.90
2018-07-23T03:53:20.757Z,99.90
2018-07-23T03:55:52.218Z,99.90
2018-07-23T03:58:22.896Z,99.90
2018-07-23T04:00:54.338Z,99.90
2018-07-23T04:03:25.611Z,99.90
2018-07-23T04:05:56.114Z,99.90
2018-07-23T04:08:26.742Z,99.90
2018-07-23T04:10:57.308Z,99.90
2018-07-23T04:13:27.904Z,99.90
2018-07-23T04:15:58.299Z,99.90
2018-07-23T04:18:29.001Z,99.90
2018-07-23T04:21:00.487Z,99.90
2018-07-23T04:23:31.274Z,99.90
2018-07-23T04:26:01.719Z,99.90
2018-07-23T04:28:32.371Z,99.90
2018-07-23T04:31:02.860Z,99.90
2018-07-23T04:33:33.914Z,99.90
2018-07-23T04:36:04.474Z,99.90
2018-07-23T04:38:35.441Z,99.90
2018-07-23T04:41:06.424Z,99.90
2018-07-23T04:43:37.005Z,99.90
2018-07-23T04:46:07.670Z,99.90
2018-07-23T04:48:38.432Z,99.90
2018-07-23T04:51:10.652Z,99.90
2018-07-23T04:53:41.241Z,99.90
2018-07-23T04:56:11.672Z,99.90
2018-07-23T04:58:42.432Z,99.90
2018-07-23T05:01:13.346Z,99.90
2018-07-23T05:03:43.934Z,99.90
2018-07-23T05:06:14.474Z,99.90
2018-07-23T05:08:45.042Z,99.90
2018-07-23T05:11:15.602Z,99.90
2018-07-23T05:13:46.174Z,99.90
2018-07-23T05:16:16.688Z,99.90
2018-07-23T05:18:48.116Z,99.90
2018-07-23T05:21:19.243Z,99.90
2018-07-23T05:23:50.004Z,99.90
2018-07-23T05:26:20.717Z,99.90
2018-07-23T05:28:52.155Z,99.90
2018-07-23T05:31:22.822Z,99.90
2018-07-23T05:33:53.330Z,99.90
2018-07-23T05:36:24.036Z,99.90
2018-07-23T05:38:55.626Z,99.90
2018-07-23T05:41:26.760Z,99.90
2018-07-23T05:43:57.347Z,99.90
2018-07-23T05:46:27.946Z,99.90
2018-07-23T05:48:58.488Z,99.90
2018-07-23T05:51:29.575Z,99.90
2018-07-23T05:54:00.327Z,99.90
2018-07-23T05:56:31.515Z,99.90
2018-07-23T05:59:03.005Z,99.90
2018-07-23T06:01:33.744Z,99.90
2018-07-23T06:04:05.094Z,99.90
2018-07-23T06:06:36.099Z,99.90
2018-07-23T06:09:10.031Z,99.90
2018-07-23T06:11:40.735Z,99.90
2018-07-23T06:14:12.109Z,99.90
2018-07-23T06:16:43.218Z,99.90
2018-07-23T06:19:13.807Z,99.90
2018-07-23T06:21:44.582Z,99.90
2018-07-23T06:26:45.142Z,99.90
2018-07-23T06:29:15.855Z,99.90
2018-07-23T06:31:47.251Z,99.90
2018-07-23T06:34:19.739Z,99.90
2018-07-23T06:36:53.847Z,99.90
2018-07-23T06:39:24.922Z,99.90
2018-07-23T06:41:55.900Z,99.90
2018-07-23T06:44:26.779Z,99.90
2018-07-23T06:46:58.871Z,99.90
2018-07-23T06:49:30.346Z,99.90
2018-07-23T06:52:01.595Z,99.90
2018-07-23T06:54:32.192Z,99.90
2018-07-23T06:57:02.827Z,99.90
2018-07-23T06:59:33.758Z,99.90
2018-07-23T07:02:04.440Z,99.90
2018-07-23T07:04:36.140Z,99.90
2018-07-23T07:07:06.830Z,99.90
2018-07-23T07:09:38.910Z,99.90
2018-07-23T07:12:10.221Z,99.90
2018-07-23T07:14:41.703Z,99.90
2018-07-23T07:17:13.146Z,99.90
2018-07-23T07:19:44.263Z,99.90
2018-07-23T07:22:14.848Z,99.90
2018-07-23T07:27:20.099Z,99.90
2018-07-23T07:29:51.787Z,99.90
2018-07-23T07:32:22.728Z,99.90
2018-07-23T07:34:53.516Z,99.90
2018-07-23T07:37:25.350Z,99.90
2018-07-23T07:39:59.944Z,99.90
2018-07-23T07:42:33.241Z,99.90
2018-07-23T07:45:05.818Z,99.90
2018-07-23T07:47:36.852Z,99.90
2018-07-23T07:50:09.075Z,99.90
2018-07-23T07:52:40.052Z,99.90
2018-07-23T07:57:41.578Z,99.90
2018-07-23T08:00:13.901Z,99.90
2018-07-23T08:02:46.101Z,99.90
2018-07-23T08:05:16.929Z,99.90
2018-07-23T08:07:48.126Z,99.90
2018-07-23T08:10:19.444Z,99.90
2018-07-23T08:12:52.208Z,99.90
2018-07-23T08:15:22.939Z,98.40
2018-07-23T08:17:54.234Z,97.60
2018-07-23T08:20:26.552Z,96.00
2018-07-23T08:22:57.551Z,95.50
2018-07-23T08:25:28.404Z,94.80
2018-07-23T08:27:59.981Z,94.90
2018-07-23T08:30:33.070Z,93.70
2018-07-23T08:33:03.979Z,93.80
2018-07-23T08:35:35.198Z,93.30
2018-07-23T08:38:07.591Z,95.10
2018-07-23T08:40:39.133Z,96.80
2018-07-23T08:43:10.013Z,96.80
2018-07-23T08:45:43.156Z,96.30
2018-07-23T08:50:46.325Z,90.90
2018-07-23T08:53:19.254Z,85.50
2018-07-23T08:55:51.378Z,81.70
2018-07-23T08:58:23.395Z,80.90
2018-07-23T09:00:55.981Z,78.20
2018-07-23T09:03:28.924Z,80.00
2018-07-23T09:05:59.740Z,79.90
2018-07-23T09:08:30.783Z,78.20
2018-07-23T09:11:02.311Z,76.70
2018-07-23T09:13:33.160Z,75.50
2018-07-23T09:16:04.111Z,73.70
2018-07-23T09:18:35.742Z,73.20
2018-07-23T09:23:37.814Z,75.30
2018-07-23T09:26:09.174Z,75.00
2018-07-23T09:28:41.170Z,76.70
2018-07-23T09:31:12.302Z,74.30
2018-07-23T09:33:43.566Z,71.70
2018-07-23T09:36:14.753Z,70.90
2018-07-23T09:38:46.026Z,68.30
2018-07-23T09:41:17.199Z,70.00
2018-07-23T09:43:48.314Z,68.30
2018-07-23T09:46:20.432Z,67.00
2018-07-23T09:48:52.572Z,69.30
2018-07-23T09:53:54.801Z,67.60
2018-07-23T09:56:26.311Z,67.10
2018-07-23T09:58:57.769Z,69.00
2018-07-23T10:01:28.739Z,65.20
2018-07-23T10:04:00.323Z,63.20
2018-07-23T10:06:32.306Z,63.40
2018-07-23T10:09:03.040Z,62.60
2018-07-23T10:11:33.964Z,59.50
2018-07-23T10:14:04.937Z,58.60
2018-07-23T10:16:36.777Z,58.50
2018-07-23T10:19:07.530Z,57.80
2018-07-23T10:21:38.762Z,54.10
2018-07-23T10:24:10.835Z,54.70
2018-07-23T10:26:43.782Z,54.90
2018-07-23T10:29:15.120Z,54.40
2018-07-23T10:31:46.767Z,54.10
2018-07-23T10:34:19.581Z,53.20
2018-07-23T10:36:50.475Z,53.50
2018-07-23T10:41:53.763Z,55.50
2018-07-23T10:44:24.936Z,56.00
2018-07-23T10:46:55.598Z,56.50
2018-07-23T10:49:26.335Z,56.40
2018-07-23T10:51:58.208Z,56.70
2018-07-23T10:54:28.988Z,55.50
2018-07-23T10:56:59.922Z,55.30
2018-07-23T10:59:30.999Z,56.00
2018-07-23T11:02:03.052Z,55.90
2018-07-23T11:04:34.835Z,55.50
2018-07-23T11:07:06.171Z,56.00
2018-07-23T11:09:37.233Z,55.60
2018-07-23T11:14:42.170Z,55.60
2018-07-23T11:17:16.403Z,56.30
2018-07-23T11:19:48.372Z,55.50
2018-07-23T11:22:19.344Z,55.30
2018-07-23T11:24:50.535Z,54.80
2018-07-23T11:27:21.724Z,53.70
2018-07-23T11:32:25.134Z,55.70
2018-07-23T11:34:57.632Z,54.80
2018-07-23T11:37:28.979Z,55.10
2018-07-23T11:39:59.916Z,54.70
2018-07-23T11:42:31.086Z,53.60
2018-07-23T11:45:03.440Z,54.20
2018-07-23T11:47:34.701Z,53.70
2018-07-23T11:50:06.457Z,53.20
2018-07-23T11:52:39.734Z,53.20
2018-07-23T11:55:11.428Z,52.60
2018-07-23T11:57:42.329Z,53.20
2018-07-23T12:00:13.584Z,53.80
2018-07-23T12:02:44.374Z,52.50
2018-07-23T12:05:19.018Z,53.00
2018-07-23T12:07:53.260Z,53.80
2018-07-23T12:10:24.414Z,54.70
2018-07-23T12:12:56.362Z,55.70
2018-07-23T12:17:58.472Z,55.00
2018-07-23T12:20:29.517Z,54.00
2018-07-23T12:23:00.532Z,55.10
2018-07-23T12:25:32.655Z,54.90
2018-07-23T12:28:04.235Z,56.30
2018-07-23T12:30:36.095Z,56.80
2018-07-23T12:33:07.292Z,59.00
2018-07-23T12:35:38.196Z,59.60
2018-07-23T12:38:17.663Z,60.00
2018-07-23T12:40:51.456Z,59.00
2018-07-23T12:43:24.126Z,58.70
2018-07-23T12:45:57.066Z,57.30
2018-07-23T12:48:28.336Z,56.50
2018-07-23T12:51:03.521Z,56.30
2018-07-23T12:53:35.535Z,56.90
2018-07-23T12:56:08.056Z,56.50
2018-07-23T12:58:39.599Z,53.70
2018-07-23T13:01:11.630Z,53.10
2018-07-23T13:03:43.192Z,53.50
2018-07-23T13:06:15.482Z,53.30
2018-07-23T13:08:46.849Z,53.70
2018-07-23T13:11:19.499Z,55.10
2018-07-23T13:13:50.829Z,55.80
2018-07-23T13:16:22.281Z,56.80
2018-07-23T13:18:53.629Z,57.90
2018-07-23T13:21:24.982Z,58.30
2018-07-23T13:23:56.796Z,57.50
2018-07-23T13:26:28.152Z,57.70
2018-07-23T13:29:00.541Z,56.10
2018-07-23T13:31:34.572Z,56.10
2018-07-23T13:34:05.934Z,55.00
2018-07-23T13:36:38.228Z,53.20
2018-07-23T13:39:13.611Z,53.90
2018-07-23T13:41:46.911Z,55.40
2018-07-23T13:44:19.449Z,54.60
2018-07-23T13:46:51.097Z,54.50
2018-07-23T13:51:54.525Z,53.80
2018-07-23T13:54:26.051Z,52.80
2018-07-23T13:56:58.876Z,52.20
2018-07-23T13:59:31.944Z,51.20
2018-07-23T14:02:04.755Z,53.00
2018-07-23T14:04:36.805Z,52.00
2018-07-23T14:07:08.307Z,52.10
2018-07-23T14:09:40.169Z,51.90
2018-07-23T14:12:18.824Z,52.20
2018-07-23T14:14:52.052Z,52.40
2018-07-23T14:17:24.407Z,53.80
2018-07-23T14:20:03.854Z,52.50
2018-07-23T14:22:40.322Z,51.90
2018-07-23T14:25:19.526Z,52.50
2018-07-23T14:27:52.007Z,53.70
2018-07-23T14:30:22.928Z,52.80
2018-07-23T14:32:54.848Z,53.00
2018-07-23T14:35:26.618Z,52.80
2018-07-23T14:37:57.949Z,52.40
2018-07-23T14:40:32.512Z,53.20
2018-07-23T14:43:06.867Z,53.70
2018-07-23T14:45:42.886Z,53.90
2018-07-23T14:48:16.779Z,54.90
2018-07-23T14:50:54.920Z,54.70
2018-07-23T14:53:34.453Z,53.80
2018-07-23T14:56:12.718Z,53.90
2018-07-23T14:58:44.968Z,54.80
2018-07-23T15:01:22.745Z,54.20
2018-07-23T15:03:56.756Z,53.60
2018-07-23T15:06:33.214Z,52.70
2018-07-23T15:09:04.383Z,53.80
2018-07-23T15:11:37.550Z,53.90
2018-07-23T15:14:09.749Z,53.30
2018-07-23T15:16:41.516Z,53.70
2018-07-23T15:19:12.732Z,53.50
2018-07-23T15:21:44.369Z,53.50
2018-07-23T15:24:15.151Z,53.90
2018-07-23T15:26:48.611Z,53.80
2018-07-23T15:29:20.349Z,53.20
2018-07-23T15:31:52.148Z,53.50
2018-07-23T15:34:23.417Z,54.30
2018-07-23T15:36:55.611Z,54.20
2018-07-23T15:39:43.510Z,54.30
2018-07-23T15:42:19.576Z,53.90
2018-07-23T15:44:51.051Z,54.40
2018-07-23T15:47:22.889Z,55.00
2018-07-23T15:49:53.962Z,55.40
2018-07-23T15:52:26.704Z,56.60
2018-07-23T15:55:01.135Z,56.60
2018-07-23T15:57:33.331Z,56.60
2018-07-23T16:00:06.291Z,56.40
2018-07-23T16:02:37.701Z,56.50
2018-07-23T16:05:09.454Z,55.90
2018-07-23T16:07:40.825Z,55.30
2018-07-23T16:10:13.690Z,55.50
2018-07-23T16:15:18.727Z,54.80
2018-07-23T16:17:49.884Z,54.90
2018-07-23T16:20:26.955Z,55.10
2018-07-23T16:22:57.991Z,54.90
2018-07-23T16:28:02.130Z,55.50
2018-07-23T16:30:35.792Z,55.70
2018-07-23T16:33:11.680Z,55.60
2018-07-23T16:35:43.690Z,55.20
2018-07-23T16:38:16.294Z,55.70
2018-07-23T16:40:52.068Z,55.30
2018-07-23T16:43:24.397Z,55.90
2018-07-23T16:45:57.137Z,55.00
2018-07-23T16:48:29.606Z,55.50
2018-07-23T16:51:01.900Z,55.20
2018-07-23T16:53:34.251Z,56.40
2018-07-23T16:56:08.540Z,55.70
2018-07-23T16:58:41.674Z,56.00
2018-07-23T17:01:18.241Z,55.30
2018-07-23T17:03:49.298Z,55.20
2018-07-23T17:06:21.284Z,55.30
2018-07-23T17:08:57.235Z,55.30
2018-07-23T17:11:28.999Z,54.70
2018-07-23T17:14:01.544Z,54.90
2018-07-23T17:16:33.584Z,55.00
2018-07-23T17:19:05.685Z,55.00
2018-07-23T17:21:37.333Z,55.30
2018-07-23T17:24:09.970Z,54.80
2018-07-23T17:26:41.353Z,55.30
2018-07-23T17:29:12.732Z,54.90
2018-07-23T17:31:43.717Z,55.20
2018-07-23T17:34:15.356Z,55.50
2018-07-23T17:36:47.085Z,55.80
2018-07-23T17:39:18.848Z,56.00
2018-07-23T17:41:50.924Z,56.20
2018-07-23T17:44:22.106Z,56.10
2018-07-23T17:46:53.106Z,56.50
2018-07-23T17:51:55.037Z,57.10
2018-07-23T17:54:26.539Z,56.90
2018-07-23T17:56:58.424Z,57.50
2018-07-23T17:59:30.201Z,57.90
2018-07-23T18:02:02.397Z,58.10
2018-07-23T18:04:33.834Z,58.10
2018-07-23T18:07:05.733Z,58.60
2018-07-23T18:09:36.821Z,58.90
2018-07-23T18:12:08.152Z,59.20
2018-07-23T18:14:39.190Z,59.10
2018-07-23T18:17:10.886Z,59.30
2018-07-23T18:19:44.220Z,59.80
2018-07-23T18:22:16.012Z,59.80
2018-07-23T18:24:51.269Z,60.00
2018-07-23T18:27:23.453Z,60.30
2018-07-23T18:29:55.374Z,60.60
2018-07-23T18:32:29.505Z,60.90
2018-07-23T18:35:02.406Z,61.50
2018-07-23T18:37:34.620Z,62.10
2018-07-23T18:40:08.919Z,62.10
2018-07-23T18:42:43.294Z,62.30
2018-07-23T18:45:16.434Z,62.50
2018-07-23T18:47:50.026Z,62.90
2018-07-23T18:50:25.629Z,63.40
2018-07-23T18:53:18.724Z,63.40
2018-07-23T18:55:53.383Z,63.50
2018-07-23T18:58:25.141Z,63.40
2018-07-23T19:00:57.418Z,63.60
2018-07-23T19:03:29.651Z,63.70
2018-07-23T19:06:02.095Z,63.40
2018-07-23T19:08:35.907Z,63.50
2018-07-23T19:11:10.587Z,63.70
2018-07-23T19:13:44.159Z,63.80
2018-07-23T19:16:29.712Z,64.00
2018-07-23T19:19:04.533Z,63.50
2018-07-23T19:21:36.628Z,63.90
2018-07-23T19:24:12.709Z,64.00
2018-07-23T19:26:50.157Z,64.80
2018-07-23T19:29:24.726Z,64.30
2018-07-23T19:32:00.951Z,64.80
2018-07-23T19:34:35.410Z,65.20
2018-07-23T19:37:34.452Z,65.80
2018-07-23T19:40:13.676Z,66.00
2018-07-23T19:42:47.677Z,66.10
2018-07-23T19:45:23.422Z,66.10
2018-07-23T19:48:03.526Z,67.80
2018-07-23T19:50:39.969Z,69.60
2018-07-23T19:53:27.937Z,70.10
2018-07-23T19:56:11.270Z,71.70
2018-07-23T19:58:44.783Z,73.20
2018-07-23T20:01:16.910Z,74.50
2018-07-23T20:03:49.331Z,75.70
2018-07-23T20:06:24.677Z,76.30
2018-07-23T20:08:58.486Z,77.00
2018-07-23T20:11:31.410Z,77.70
2018-07-23T20:14:04.904Z,78.70
2018-07-23T20:19:10.634Z,79.50
2018-07-23T20:21:44.300Z,79.90
2018-07-23T20:24:18.175Z,80.80
2018-07-23T20:26:52.084Z,81.50
2018-07-23T20:29:24.630Z,82.40
2018-07-23T20:31:57.631Z,82.80
2018-07-23T20:34:29.641Z,83.40
2018-07-23T20:37:02.511Z,84.40
2018-07-23T20:39:36.166Z,84.60
2018-07-23T20:42:10.672Z,85.10
2018-07-23T20:44:43.692Z,86.40
2018-07-23T20:47:15.537Z,87.90
2018-07-23T20:49:48.282Z,90.70
2018-07-23T20:52:21.922Z,91.50
2018-07-23T20:54:54.878Z,91.80
2018-07-23T20:57:26.489Z,91.40
2018-07-23T20:59:58.598Z,91.10
2018-07-23T21:02:31.577Z,91.30
2018-07-23T21:05:03.191Z,91.60
2018-07-23T21:07:35.318Z,91.40
2018-07-23T21:10:08.913Z,91.10
2018-07-23T21:12:40.453Z,91.20
2018-07-23T21:15:12.389Z,91.30
2018-07-23T21:17:46.191Z,91.40
2018-07-23T21:20:17.683Z,91.30
2018-07-23T21:22:50.444Z,91.80
2018-07-23T21:25:22.178Z,91.80
2018-07-23T21:27:53.123Z,91.90
2018-07-23T21:30:23.713Z,91.80
2018-07-23T21:32:54.397Z,92.10
2018-07-23T21:35:25.237Z,92.00
2018-07-23T21:37:56.000Z,92.30
2018-07-23T21:40:26.808Z,92.70
2018-07-23T21:42:57.861Z,93.10
2018-07-23T21:45:29.725Z,93.30
2018-07-23T21:48:00.427Z,93.80
2018-07-23T21:50:32.255Z,93.90
2018-07-23T21:53:03.045Z,94.40
2018-07-23T21:55:33.732Z,94.80
2018-07-23T21:58:05.165Z,94.90
2018-07-23T22:00:37.068Z,94.70
2018-07-23T22:03:08.584Z,94.90
2018-07-23T22:05:40.076Z,94.90
2018-07-23T22:08:10.679Z,94.80
2018-07-23T22:10:41.212Z,94.80
2018-07-23T22:13:12.302Z,95.30
2018-07-23T22:15:43.929Z,95.70
2018-07-23T22:18:15.589Z,95.20
2018-07-23T22:20:47.712Z,95.40
2018-07-23T22:23:18.606Z,95.50
2018-07-23T22:25:49.416Z,95.60
2018-07-23T22:28:20.480Z,95.70
2018-07-23T22:30:51.435Z,95.80
2018-07-23T22:33:22.149Z,95.90
2018-07-23T22:35:53.664Z,96.00
2018-07-23T22:40:56.542Z,96.30
2018-07-23T22:43:27.167Z,96.30
2018-07-23T22:45:57.875Z,96.10
2018-07-23T22:48:28.493Z,96.20
2018-07-23T22:50:59.224Z,96.00
2018-07-23T22:53:29.814Z,95.90
2018-07-23T22:56:00.460Z,95.80
2018-07-23T22:58:32.313Z,95.80
2018-07-23T23:01:03.091Z,95.70
2018-07-23T23:03:33.977Z,95.80
2018-07-23T23:06:04.586Z,95.90
2018-07-23T23:08:35.329Z,96.10
2018-07-23T23:11:06.213Z,96.10
2018-07-23T23:13:36.808Z,96.30
2018-07-23T23:16:07.941Z,96.80
2018-07-23T23:18:39.459Z,97.20
2018-07-23T23:21:10.802Z,97.60
2018-07-23T23:23:41.208Z,97.80
2018-07-23T23:26:12.365Z,98.10
2018-07-23T23:28:43.289Z,98.30
2018-07-23T23:31:14.062Z,98.70
2018-07-23T23:33:45.163Z,99.30
2018-07-23T23:36:16.573Z,99.80
2018-07-23T23:38:47.469Z,99.90
2018-07-23T23:41:18.043Z,99.90
2018-07-23T23:43:48.573Z,99.90
2018-07-23T23:46:20.058Z,99.90
2018-07-23T23:48:50.765Z,99.90
2018-07-23T23:51:21.333Z,99.90
2018-07-23T23:53:52.376Z,99.90
2018-07-23T23:56:23.705Z,99.90
2018-07-23T23:58:54.488Z,99.90
